createdAt,value
2018-01-27T00:00:19.786Z,0.00
2018-01-27T00:01:19.761Z,0.00
2018-01-27T00:02:19.730Z,0.00
2018-01-27T00:03:19.695Z,0.00
2018-01-27T00:04:19.703Z,0.00
2018-01-27T00:05:19.666Z,0.00
2018-01-27T00:06:19.661Z,0.00
2018-01-27T00:07:19.643Z,0.00
2018-01-27T00:08:19.594Z,0.00
2018-01-27T00:09:20.136Z,0.00
2018-01-27T00:10:19.557Z,0.00
2018-01-27T00:11:19.539Z,0.00
2018-01-27T00:12:19.518Z,0.00
2018-01-27T00:13:19.528Z,0.00
2018-01-27T00:14:19.474Z,0.00
2018-01-27T00:15:19.519Z,0.00
2018-01-27T00:16:19.464Z,0.00
2018-01-27T00:17:19.448Z,0.00
2018-01-27T00:18:19.396Z,0.00
2018-01-27T00:19:19.405Z,0.00
2018-01-27T00:20:19.353Z,0.00
2018-01-27T00:21:19.346Z,0.00
2018-01-27T00:22:19.319Z,0.00
2018-01-27T00:23:19.302Z,0.00
2018-01-27T00:24:19.306Z,0.00
2018-01-27T00:25:19.286Z,0.00
2018-01-27T00:26:19.263Z,0.00
2018-01-27T00:27:19.233Z,0.00
2018-01-27T00:28:19.197Z,0.00
2018-01-27T00:29:19.203Z,0.00
2018-01-27T00:30:19.186Z,0.00
2018-01-27T00:31:19.166Z,0.00
2018-01-27T00:32:19.127Z,0.00
2018-01-27T00:33:19.101Z,0.00
2018-01-27T00:34:19.104Z,0.00
2018-01-27T00:35:19.085Z,0.00
2018-01-27T00:36:19.033Z,0.00
2018-01-27T00:37:19.047Z,0.00
2018-01-27T00:38:19.008Z,0.00
2018-01-27T00:39:18.971Z,0.00
2018-01-27T00:40:18.954Z,0.00
2018-01-27T00:41:18.942Z,0.00
2018-01-27T00:42:18.927Z,0.00
2018-01-27T00:43:18.921Z,0.00
2018-01-27T00:44:19.432Z,0.00
2018-01-27T00:45:18.880Z,0.00
2018-01-27T00:46:18.832Z,0.00
2018-01-27T00:47:18.815Z,0.00
2018-01-27T00:48:18.790Z,0.00
2018-01-27T00:49:18.797Z,0.00
2018-01-27T00:50:18.779Z,0.00
2018-01-27T00:51:18.755Z,0.00
2018-01-27T00:52:18.712Z,0.00
2018-01-27T00:53:18.701Z,0.00
2018-01-27T00:54:18.694Z,0.00
2018-01-27T00:55:18.660Z,0.00
2018-01-27T00:56:18.639Z,0.00
2018-01-27T00:57:18.622Z,0.00
2018-01-27T00:58:18.801Z,0.00
2018-01-27T00:59:18.577Z,0.00
2018-01-27T01:00:18.573Z,0.00
2018-01-27T01:01:18.534Z,0.00
2018-01-27T01:02:18.518Z,0.00
2018-01-27T01:03:18.486Z,0.00
2018-01-27T01:04:18.488Z,0.00
2018-01-27T01:05:18.475Z,0.00
2018-01-27T01:06:18.427Z,0.00
2018-01-27T01:07:18.404Z,0.00
2018-01-27T01:08:18.385Z,0.00
2018-01-27T01:09:18.386Z,0.00
2018-01-27T01:10:18.340Z,0.00
2018-01-27T01:11:18.322Z,0.00
2018-01-27T01:12:18.300Z,0.00
2018-01-27T01:13:18.308Z,0.00
2018-01-27T01:14:18.265Z,0.00
2018-01-27T01:15:18.240Z,0.00
2018-01-27T01:16:18.219Z,0.00
2018-01-27T01:17:18.198Z,0.00
2018-01-27T01:18:18.206Z,0.00
2018-01-27T01:19:18.162Z,0.00
2018-01-27T01:20:18.162Z,0.00
2018-01-27T01:21:18.143Z,0.00
2018-01-27T01:22:18.121Z,0.00
2018-01-27T01:23:18.071Z,0.00
2018-01-27T01:24:18.061Z,0.00
2018-01-27T01:25:18.038Z,0.00
2018-01-27T01:26:18.018Z,0.00
2018-01-27T01:27:18.017Z,0.00
2018-01-27T01:28:17.997Z,0.00
2018-01-27T01:29:17.976Z,0.00
2018-01-27T01:30:17.955Z,0.00
2018-01-27T01:31:17.936Z,0.00
2018-01-27T01:32:17.886Z,0.00
2018-01-27T01:33:17.898Z,0.00
2018-01-27T01:34:17.848Z,0.00
2018-01-27T01:35:17.853Z,0.00
2018-01-27T01:36:17.832Z,0.00
2018-01-27T01:37:17.785Z,0.00
2018-01-27T01:38:17.777Z,0.00
2018-01-27T01:39:17.776Z,0.00
2018-01-27T01:40:17.746Z,0.00
2018-01-27T01:41:17.702Z,0.00
2018-01-27T01:42:17.708Z,0.00
2018-01-27T01:43:17.666Z,0.00
2018-01-27T01:44:17.648Z,0.00
2018-01-27T01:45:17.626Z,0.00
2018-01-27T01:46:17.625Z,0.00
2018-01-27T01:47:17.583Z,0.00
2018-01-27T01:48:17.564Z,0.00
2018-01-27T01:49:17.533Z,0.00
2018-01-27T01:50:17.544Z,0.00
2018-01-27T01:51:17.519Z,0.00
2018-01-27T01:52:17.499Z,0.00
2018-01-27T01:53:17.480Z,0.00
2018-01-27T01:54:17.433Z,0.00
2018-01-27T01:55:17.411Z,0.00
2018-01-27T01:56:17.399Z,0.00
2018-01-27T01:57:17.386Z,0.00
2018-01-27T01:58:17.353Z,0.00
2018-01-27T01:59:17.341Z,0.00
2018-01-27T02:00:17.309Z,0.00
2018-01-27T02:01:17.296Z,0.00
2018-01-27T02:02:17.270Z,0.00
2018-01-27T02:03:17.247Z,0.00
2018-01-27T02:04:17.260Z,0.00
2018-01-27T02:05:17.239Z,0.00
2018-01-27T02:06:17.188Z,0.00
2018-01-27T02:07:17.191Z,0.00
2018-01-27T02:08:17.174Z,0.00
2018-01-27T02:09:17.124Z,0.00
2018-01-27T02:10:17.134Z,0.00
2018-01-27T02:11:17.080Z,0.00
2018-01-27T02:12:17.066Z,0.00
2018-01-27T02:13:17.072Z,0.00
2018-01-27T02:14:17.023Z,0.00
2018-01-27T02:15:16.999Z,0.00
2018-01-27T02:16:16.981Z,0.00
2018-01-27T02:17:16.987Z,0.00
2018-01-27T02:18:16.940Z,0.00
2018-01-27T02:19:16.948Z,0.00
2018-01-27T02:20:16.903Z,0.00
2018-01-27T02:21:16.892Z,0.00
2018-01-27T02:22:16.875Z,0.00
2018-01-27T02:23:16.850Z,0.00
2018-01-27T02:24:16.818Z,0.00
2018-01-27T02:25:16.828Z,0.00
2018-01-27T02:26:16.785Z,0.00
2018-01-27T02:27:16.759Z,0.00
2018-01-27T02:28:16.739Z,0.00
2018-01-27T02:29:16.715Z,0.00
2018-01-27T02:30:16.704Z,0.00
2018-01-27T02:31:16.688Z,0.00
2018-01-27T02:32:16.683Z,0.00
2018-01-27T02:33:16.634Z,0.00
2018-01-27T02:34:16.629Z,0.00
2018-01-27T02:35:16.596Z,0.00
2018-01-27T02:36:16.612Z,0.00
2018-01-27T02:37:16.565Z,0.00
2018-01-27T02:38:16.532Z,0.00
2018-01-27T02:39:16.509Z,0.00
2018-01-27T02:40:16.514Z,0.00
2018-01-27T02:41:16.475Z,0.00
2018-01-27T02:42:16.461Z,0.00
2018-01-27T02:43:16.440Z,0.00
2018-01-27T02:44:16.436Z,0.00
2018-01-27T02:45:16.393Z,0.00
2018-01-27T02:46:16.381Z,0.00
2018-01-27T02:47:16.347Z,0.00
2018-01-27T02:48:16.327Z,0.00
2018-01-27T02:49:16.309Z,0.00
2018-01-27T02:50:16.316Z,0.00
2018-01-27T02:51:16.265Z,0.00
2018-01-27T02:52:16.247Z,0.00
2018-01-27T02:53:16.225Z,0.00
2018-01-27T02:54:16.235Z,0.00
2018-01-27T02:55:16.203Z,0.00
2018-01-27T02:56:16.163Z,0.00
2018-01-27T02:57:16.172Z,0.00
2018-01-27T02:58:16.667Z,0.00
2018-01-27T02:59:16.134Z,0.00
2018-01-27T03:00:16.086Z,0.00
2018-01-27T03:01:16.092Z,0.00
2018-01-27T03:02:16.042Z,0.00
2018-01-27T03:03:16.028Z,0.00
2018-01-27T03:04:16.000Z,0.00
2018-01-27T03:05:15.984Z,0.00
2018-01-27T03:06:15.971Z,0.00
2018-01-27T03:07:15.939Z,0.00
2018-01-27T03:08:15.947Z,0.00
2018-01-27T03:09:15.898Z,0.00
2018-01-27T03:10:15.887Z,0.00
2018-01-27T03:11:15.864Z,0.00
2018-01-27T03:12:15.841Z,0.00
2018-01-27T03:13:15.822Z,0.00
2018-01-27T03:14:15.799Z,0.00
2018-01-27T03:15:15.788Z,0.00
2018-01-27T03:16:15.780Z,0.00
2018-01-27T03:17:15.769Z,0.00
2018-01-27T03:18:15.716Z,0.00
2018-01-27T03:19:15.693Z,0.00
2018-01-27T03:20:15.699Z,0.00
2018-01-27T03:21:15.656Z,0.00
2018-01-27T03:22:15.658Z,0.00
2018-01-27T03:23:15.612Z,0.00
2018-01-27T03:24:15.618Z,0.00
2018-01-27T03:25:15.597Z,0.00
2018-01-27T03:26:15.580Z,0.00
2018-01-27T03:27:15.538Z,0.00
2018-01-27T03:28:15.513Z,0.00
2018-01-27T03:29:15.497Z,0.00
2018-01-27T03:30:15.470Z,0.00
2018-01-27T03:31:15.481Z,0.00
2018-01-27T03:32:15.461Z,0.00
2018-01-27T03:33:15.412Z,0.00
2018-01-27T03:34:15.390Z,0.00
2018-01-27T03:35:15.395Z,0.00
2018-01-27T03:36:15.374Z,0.00
2018-01-27T03:37:15.328Z,0.00
2018-01-27T03:38:15.326Z,0.00
2018-01-27T03:39:15.303Z,0.00
2018-01-27T03:40:15.292Z,0.00
2018-01-27T03:41:15.248Z,0.00
2018-01-27T03:42:15.224Z,0.00
2018-01-27T03:43:15.205Z,0.00
2018-01-27T03:44:15.190Z,0.00
2018-01-27T03:45:15.162Z,0.00
2018-01-27T03:46:15.146Z,0.00
2018-01-27T03:47:15.118Z,0.00
2018-01-27T03:48:15.098Z,0.00
2018-01-27T03:49:15.111Z,0.00
2018-01-27T03:50:15.060Z,0.00
2018-01-27T03:51:15.069Z,0.00
2018-01-27T03:52:15.048Z,0.00
2018-01-27T03:53:15.006Z,0.00
2018-01-27T03:54:14.990Z,0.00
2018-01-27T03:55:14.958Z,0.00
2018-01-27T03:56:14.941Z,0.00
2018-01-27T03:57:14.926Z,0.00
2018-01-27T03:58:14.909Z,0.00
2018-01-27T03:59:14.884Z,0.00
2018-01-27T04:00:14.859Z,0.00
2018-01-27T04:01:14.836Z,0.00
2018-01-27T04:02:14.814Z,0.00
2018-01-27T04:03:14.795Z,0.00
2018-01-27T04:04:14.788Z,0.00
2018-01-27T04:05:14.751Z,0.00
2018-01-27T04:06:14.734Z,0.00
2018-01-27T04:07:14.720Z,0.00
2018-01-27T04:08:14.692Z,0.00
2018-01-27T04:09:14.699Z,0.00
2018-01-27T04:10:14.653Z,0.00
2018-01-27T04:11:14.635Z,0.00
2018-01-27T04:12:14.642Z,0.00
2018-01-27T04:13:14.617Z,0.00
2018-01-27T04:14:14.568Z,0.00
2018-01-27T04:15:14.552Z,0.00
2018-01-27T04:16:14.556Z,0.00
2018-01-27T04:17:14.510Z,0.00
2018-01-27T04:18:14.490Z,0.00
2018-01-27T04:19:14.476Z,0.00
2018-01-27T04:20:14.449Z,0.00
2018-01-27T04:21:14.436Z,0.00
2018-01-27T04:22:14.406Z,0.00
2018-01-27T04:23:14.387Z,0.00
2018-01-27T04:24:14.375Z,0.00
2018-01-27T04:25:14.893Z,0.00
2018-01-27T04:26:14.353Z,0.00
2018-01-27T04:27:14.333Z,0.00
2018-01-27T04:28:14.318Z,0.00
2018-01-27T04:29:14.266Z,0.00
2018-01-27T04:30:14.274Z,0.00
2018-01-27T04:31:14.226Z,0.00
2018-01-27T04:32:14.203Z,0.00
2018-01-27T04:33:14.187Z,0.00
2018-01-27T04:34:14.191Z,0.00
2018-01-27T04:35:14.142Z,0.00
2018-01-27T04:36:14.122Z,0.00
2018-01-27T04:37:14.130Z,0.00
2018-01-27T04:38:14.082Z,0.00
2018-01-27T04:39:14.064Z,0.00
2018-01-27T04:40:14.045Z,0.00
2018-01-27T04:41:14.021Z,0.00
2018-01-27T04:42:14.034Z,0.00
2018-01-27T04:43:13.981Z,0.00
2018-01-27T04:44:13.956Z,0.00
2018-01-27T04:45:13.969Z,0.00
2018-01-27T04:46:13.917Z,0.00
2018-01-27T04:47:13.901Z,0.00
2018-01-27T04:48:13.878Z,0.00
2018-01-27T04:49:13.861Z,0.00
2018-01-27T04:50:13.838Z,0.00
2018-01-27T04:51:13.816Z,0.00
2018-01-27T04:52:13.822Z,0.00
2018-01-27T04:53:13.776Z,0.00
2018-01-27T04:54:14.315Z,0.00
2018-01-27T04:55:13.766Z,0.00
2018-01-27T04:56:13.715Z,0.00
2018-01-27T04:57:13.693Z,0.00
2018-01-27T04:58:13.692Z,0.00
2018-01-27T04:59:13.653Z,0.00
2018-01-27T05:00:13.641Z,0.00
2018-01-27T05:01:13.616Z,0.00
2018-01-27T05:02:13.626Z,0.00
2018-01-27T05:03:13.572Z,0.00
2018-01-27T05:04:13.555Z,0.00
2018-01-27T05:05:13.532Z,0.00
2018-01-27T05:06:13.541Z,0.00
2018-01-27T05:07:13.490Z,0.00
2018-01-27T05:08:13.473Z,0.00
2018-01-27T05:09:13.467Z,0.00
2018-01-27T05:10:13.434Z,0.00
2018-01-27T05:11:13.424Z,0.00
2018-01-27T05:12:13.415Z,0.00
2018-01-27T05:13:13.398Z,0.00
2018-01-27T05:14:13.378Z,0.00
2018-01-27T05:15:13.332Z,0.00
2018-01-27T05:16:13.309Z,0.00
2018-01-27T05:17:13.315Z,0.00
2018-01-27T05:18:13.269Z,0.00
2018-01-27T05:19:13.274Z,0.00
2018-01-27T05:20:13.260Z,0.00
2018-01-27T05:21:13.237Z,0.00
2018-01-27T05:22:13.202Z,0.00
2018-01-27T05:23:13.186Z,0.00
2018-01-27T05:24:13.177Z,0.00
2018-01-27T05:25:13.126Z,0.00
2018-01-27T05:26:13.119Z,0.00
2018-01-27T05:27:13.088Z,0.00
2018-01-27T05:28:13.068Z,0.00
2018-01-27T05:29:13.041Z,0.00
2018-01-27T05:30:13.054Z,0.00
2018-01-27T05:31:13.006Z,0.00
2018-01-27T05:32:13.010Z,0.00
2018-01-27T05:33:12.964Z,0.00
2018-01-27T05:34:12.951Z,0.00
2018-01-27T05:35:12.949Z,0.00
2018-01-27T05:36:12.904Z,0.00
2018-01-27T05:37:12.896Z,0.00
2018-01-27T05:38:12.862Z,0.00
2018-01-27T05:39:12.856Z,0.00
2018-01-27T05:40:12.825Z,0.00
2018-01-27T05:41:12.801Z,0.00
2018-01-27T05:42:12.816Z,0.00
2018-01-27T05:43:12.760Z,0.00
2018-01-27T05:44:12.767Z,0.00
2018-01-27T05:45:12.725Z,0.00
2018-01-27T05:46:12.782Z,0.00
2018-01-27T05:47:12.683Z,0.00
2018-01-27T05:48:12.660Z,0.00
2018-01-27T05:49:12.638Z,0.00
2018-01-27T05:50:12.630Z,0.00
2018-01-27T05:51:12.611Z,0.00
2018-01-27T05:52:12.591Z,0.00
2018-01-27T05:53:12.584Z,0.00
2018-01-27T05:54:12.545Z,0.00
2018-01-27T05:55:12.528Z,0.00
2018-01-27T05:56:12.505Z,0.00
2018-01-27T05:57:12.480Z,0.00
2018-01-27T05:58:12.457Z,0.00
2018-01-27T05:59:12.452Z,0.00
2018-01-27T06:00:12.429Z,0.00
2018-01-27T06:01:12.405Z,0.00
2018-01-27T06:02:12.379Z,0.00
2018-01-27T06:03:12.355Z,0.00
2018-01-27T06:04:12.338Z,0.00
2018-01-27T06:05:12.344Z,0.00
2018-01-27T06:06:12.328Z,0.00
2018-01-27T06:07:12.303Z,0.00
2018-01-27T06:08:12.256Z,0.00
2018-01-27T06:09:12.237Z,0.00
2018-01-27T06:10:12.243Z,0.00
2018-01-27T06:11:12.223Z,0.00
2018-01-27T06:12:12.202Z,0.00
2018-01-27T06:13:12.156Z,0.00
2018-01-27T06:14:12.137Z,0.00
2018-01-27T06:15:12.141Z,0.00
2018-01-27T06:16:12.089Z,0.00
2018-01-27T06:17:12.102Z,0.00
2018-01-27T06:18:12.056Z,0.00
2018-01-27T06:19:12.032Z,0.00
2018-01-27T06:20:12.016Z,0.00
2018-01-27T06:21:11.991Z,0.00
2018-01-27T06:22:11.983Z,0.00
2018-01-27T06:23:11.981Z,0.00
2018-01-27T06:24:11.956Z,0.00
2018-01-27T06:25:11.911Z,0.00
2018-01-27T06:26:11.893Z,0.00
2018-01-27T06:27:11.884Z,0.00
2018-01-27T06:28:11.847Z,0.00
2018-01-27T06:29:11.855Z,0.00
2018-01-27T06:30:11.825Z,0.00
2018-01-27T06:31:11.796Z,0.00
2018-01-27T06:32:11.777Z,0.00
2018-01-27T06:33:11.755Z,0.00
2018-01-27T06:34:11.762Z,0.00
2018-01-27T06:35:11.736Z,0.00
2018-01-27T06:36:11.715Z,0.00
2018-01-27T06:37:11.697Z,0.00
2018-01-27T06:38:11.679Z,0.00
2018-01-27T06:39:11.652Z,0.00
2018-01-27T06:40:11.614Z,0.00
2018-01-27T06:41:11.593Z,0.00
2018-01-27T06:42:11.592Z,0.00
2018-01-27T06:43:11.575Z,0.00
2018-01-27T06:44:11.528Z,0.00
2018-01-27T06:45:11.531Z,0.00
2018-01-27T06:46:11.487Z,0.00
2018-01-27T06:47:11.467Z,0.00
2018-01-27T06:48:11.441Z,0.00
2018-01-27T06:49:11.440Z,0.00
2018-01-27T06:50:11.404Z,0.00
2018-01-27T06:51:11.416Z,0.00
2018-01-27T06:52:11.362Z,0.00
2018-01-27T06:53:11.345Z,0.00
2018-01-27T06:54:11.325Z,0.00
2018-01-27T06:55:11.329Z,0.00
2018-01-27T06:56:11.310Z,0.00
2018-01-27T06:57:11.286Z,0.00
2018-01-27T06:58:11.247Z,0.00
2018-01-27T06:59:11.248Z,0.00
2018-01-27T07:00:11.198Z,0.00
2018-01-27T07:01:11.184Z,0.00
2018-01-27T07:02:11.186Z,0.00
2018-01-27T07:03:11.160Z,0.00
2018-01-27T07:04:11.140Z,0.00
2018-01-27T07:05:11.093Z,0.00
2018-01-27T07:06:11.121Z,0.00
2018-01-27T07:07:11.051Z,0.00
2018-01-27T07:08:11.056Z,0.00
2018-01-27T07:09:11.021Z,0.00
2018-01-27T07:10:10.992Z,0.00
2018-01-27T07:11:10.983Z,0.00
2018-01-27T07:12:10.972Z,0.00
2018-01-27T07:13:10.924Z,0.00
2018-01-27T07:14:10.908Z,0.00
2018-01-27T07:15:10.887Z,0.00
2018-01-27T07:16:10.865Z,0.00
2018-01-27T07:17:10.844Z,0.00
2018-01-27T07:18:10.829Z,0.00
2018-01-27T07:19:10.830Z,0.00
2018-01-27T07:20:10.810Z,0.00
2018-01-27T07:21:10.762Z,0.00
2018-01-27T07:22:10.740Z,0.00
2018-01-27T07:23:10.723Z,0.00
2018-01-27T07:24:10.698Z,0.00
2018-01-27T07:25:10.703Z,0.00
2018-01-27T07:26:10.680Z,0.00
2018-01-27T07:27:10.664Z,0.00
2018-01-27T07:28:10.639Z,0.00
2018-01-27T07:29:10.595Z,0.00
2018-01-27T07:30:10.571Z,0.00
2018-01-27T07:31:10.552Z,0.00
2018-01-27T07:32:10.527Z,0.00
2018-01-27T07:33:10.509Z,0.00
2018-01-27T07:34:10.488Z,0.00
2018-01-27T07:35:10.491Z,0.00
2018-01-27T07:36:10.442Z,0.00
2018-01-27T07:37:10.438Z,0.00
2018-01-27T07:38:10.433Z,0.00
2018-01-27T07:39:10.376Z,0.00
2018-01-27T07:40:10.362Z,0.00
2018-01-27T07:41:10.365Z,0.00
2018-01-27T07:42:10.328Z,0.00
2018-01-27T07:43:10.321Z,0.00
2018-01-27T07:44:10.269Z,0.00
2018-01-27T07:45:10.268Z,0.00
2018-01-27T07:46:10.231Z,0.00
2018-01-27T07:47:10.210Z,0.00
2018-01-27T07:48:10.216Z,0.00
2018-01-27T07:49:10.168Z,0.00
2018-01-27T07:50:10.147Z,0.00
2018-01-27T07:51:10.158Z,0.00
2018-01-27T07:52:10.105Z,0.00
2018-01-27T07:53:10.088Z,0.00
2018-01-27T07:54:10.066Z,0.00
2018-01-27T07:55:10.042Z,0.00
2018-01-27T07:56:10.046Z,0.00
2018-01-27T07:57:10.009Z,0.00
2018-01-27T07:58:09.979Z,0.00
2018-01-27T07:59:09.957Z,0.00
2018-01-27T08:00:09.963Z,0.00
2018-01-27T08:01:09.915Z,0.00
2018-01-27T08:02:09.901Z,0.00
2018-01-27T08:03:09.882Z,0.00
2018-01-27T08:04:09.853Z,0.00
2018-01-27T08:05:09.827Z,0.00
2018-01-27T08:06:09.822Z,0.00
2018-01-27T08:07:09.794Z,0.00
2018-01-27T08:08:09.792Z,0.00
2018-01-27T08:09:09.748Z,0.00
2018-01-27T08:10:09.760Z,0.00
2018-01-27T08:11:09.734Z,0.00
2018-01-27T08:12:09.692Z,0.00
2018-01-27T08:13:09.689Z,0.00
2018-01-27T08:14:09.651Z,0.00
2018-01-27T08:15:09.651Z,0.00
2018-01-27T08:16:09.629Z,0.00
2018-01-27T08:17:09.583Z,0.00
2018-01-27T08:18:09.592Z,0.00
2018-01-27T08:19:09.563Z,0.00
2018-01-27T08:20:09.543Z,4.00
2018-01-27T08:21:09.523Z,4.00
2018-01-27T08:22:09.475Z,4.00
2018-01-27T08:23:09.453Z,8.00
2018-01-27T08:24:09.433Z,8.00
2018-01-27T08:25:09.432Z,8.00
2018-01-27T08:26:09.391Z,16.00
2018-01-27T08:27:09.402Z,16.00
2018-01-27T08:28:09.365Z,24.00
2018-01-27T08:29:09.353Z,32.00
2018-01-27T08:30:09.337Z,40.00
2018-01-27T08:31:09.292Z,48.00
2018-01-27T08:32:09.279Z,60.00
2018-01-27T08:33:09.269Z,72.00
2018-01-27T08:34:09.222Z,96.00
2018-01-27T08:35:09.209Z,116.00
2018-01-27T08:36:09.182Z,116.00
2018-01-27T08:37:09.159Z,136.00
2018-01-27T08:38:09.171Z,160.00
2018-01-27T08:39:09.116Z,216.00
2018-01-27T08:40:09.095Z,248.00
2018-01-27T08:41:09.100Z,280.00
2018-01-27T08:42:09.054Z,336.00
2018-01-27T08:43:09.066Z,384.00
2018-01-27T08:44:09.018Z,416.00
2018-01-27T08:45:08.994Z,416.00
2018-01-27T08:46:08.973Z,448.00
2018-01-27T08:47:08.977Z,556.00
2018-01-27T08:48:08.954Z,584.00
2018-01-27T08:49:08.908Z,596.00
2018-01-27T08:50:08.884Z,604.00
2018-01-27T08:51:08.865Z,612.00
2018-01-27T08:52:08.858Z,612.00
2018-01-27T08:53:08.817Z,708.00
2018-01-27T08:54:08.802Z,692.00
2018-01-27T08:55:08.786Z,624.00
2018-01-27T08:56:08.759Z,640.00
2018-01-27T08:57:08.733Z,720.00
2018-01-27T08:58:08.712Z,768.00
2018-01-27T08:59:08.692Z,684.00
2018-01-27T09:00:08.726Z,920.00
2018-01-27T09:01:08.663Z,1160.00
2018-01-27T09:02:08.655Z,1144.00
2018-01-27T09:03:08.624Z,1152.00
2018-01-27T09:04:08.585Z,1072.00
2018-01-27T09:05:08.578Z,1176.00
2018-01-27T09:06:08.573Z,1224.00
2018-01-27T09:07:08.555Z,1212.00
2018-01-27T09:08:08.501Z,1132.00
2018-01-27T09:09:08.508Z,1300.00
2018-01-27T09:10:08.488Z,1372.00
2018-01-27T09:11:08.470Z,1624.00
2018-01-27T09:12:08.416Z,1520.00
2018-01-27T09:13:08.428Z,1416.00
2018-01-27T09:14:08.376Z,1732.00
2018-01-27T09:15:08.367Z,2008.00
2018-01-27T09:16:08.335Z,1804.00
2018-01-27T09:17:08.339Z,1796.00
2018-01-27T09:18:08.315Z,1712.00
2018-01-27T09:19:08.268Z,1640.00
2018-01-27T09:20:08.247Z,1392.00
2018-01-27T09:21:08.226Z,1452.00
2018-01-27T09:22:08.209Z,1724.00
2018-01-27T09:23:08.181Z,1576.00
2018-01-27T09:24:08.166Z,1556.00
2018-01-27T09:25:08.170Z,1560.00
2018-01-27T09:26:08.122Z,1652.00
2018-01-27T09:27:08.104Z,2408.00
2018-01-27T09:28:08.108Z,2924.00
2018-01-27T09:29:08.074Z,3112.00
2018-01-27T09:30:08.055Z,3520.00
2018-01-27T09:31:08.015Z,3432.00
2018-01-27T09:32:08.013Z,2632.00
2018-01-27T09:33:07.989Z,3108.00
2018-01-27T09:34:07.965Z,4116.00
2018-01-27T09:35:07.933Z,5020.00
2018-01-27T09:36:07.912Z,5116.00
2018-01-27T09:37:07.899Z,4812.00
2018-01-27T09:38:07.875Z,4540.00
2018-01-27T09:39:07.853Z,4140.00
2018-01-27T09:40:07.857Z,4420.00
2018-01-27T09:41:07.837Z,4776.00
2018-01-27T09:42:07.792Z,4928.00
2018-01-27T09:43:07.794Z,4480.00
2018-01-27T09:44:07.750Z,3732.00
2018-01-27T09:45:07.740Z,3920.00
2018-01-27T09:46:07.713Z,4164.00
2018-01-27T09:47:07.713Z,4536.00
2018-01-27T09:48:07.661Z,4884.00
2018-01-27T09:49:07.658Z,4672.00
2018-01-27T09:50:07.628Z,5312.00
2018-01-27T09:51:07.603Z,6848.00
2018-01-27T09:52:07.581Z,7596.00
2018-01-27T09:53:07.570Z,6940.00
2018-01-27T09:54:07.543Z,6804.00
2018-01-27T09:55:07.531Z,6664.00
2018-01-27T09:56:07.509Z,5804.00
2018-01-27T09:57:07.507Z,4972.00
2018-01-27T09:58:07.462Z,6076.00
2018-01-27T09:59:07.437Z,6896.00
2018-01-27T10:00:07.417Z,6424.00
2018-01-27T10:01:07.399Z,5864.00
2018-01-27T10:02:07.376Z,6040.00
2018-01-27T10:03:07.359Z,6844.00
2018-01-27T10:04:07.365Z,6048.00
2018-01-27T10:05:07.349Z,5092.00
2018-01-27T10:06:07.321Z,5632.00
2018-01-27T10:07:07.278Z,5436.00
2018-01-27T10:08:07.256Z,4656.00
2018-01-27T10:09:07.233Z,4432.00
2018-01-27T10:10:07.223Z,3900.00
2018-01-27T10:11:07.198Z,4036.00
2018-01-27T10:12:07.172Z,3888.00
2018-01-27T10:13:07.155Z,3360.00
2018-01-27T10:14:07.159Z,3704.00
2018-01-27T10:15:07.140Z,4304.00
2018-01-27T10:16:07.120Z,5652.00
2018-01-27T10:17:07.100Z,5928.00
2018-01-27T10:18:07.055Z,5504.00
2018-01-27T10:19:07.030Z,5560.00
2018-01-27T10:20:07.039Z,5560.00
2018-01-27T10:21:07.022Z,6036.00
2018-01-27T10:22:06.997Z,6592.00
2018-01-27T10:23:06.951Z,6564.00
2018-01-27T10:24:06.954Z,7248.00
2018-01-27T10:25:07.482Z,7252.00
2018-01-27T10:26:06.916Z,7492.00
2018-01-27T10:27:06.900Z,7324.00
2018-01-27T10:28:06.856Z,6828.00
2018-01-27T10:29:06.831Z,7412.00
2018-01-27T10:30:06.806Z,8256.00
2018-01-27T10:31:06.818Z,8700.00
2018-01-27T10:32:06.796Z,8012.00
2018-01-27T10:33:06.742Z,6912.00
2018-01-27T10:34:06.750Z,6212.00
2018-01-27T10:35:06.711Z,7600.00
2018-01-27T10:36:06.687Z,8008.00
2018-01-27T10:37:06.679Z,10148.00
2018-01-27T10:38:06.647Z,10392.00
2018-01-27T10:39:06.624Z,9608.00
2018-01-27T10:40:06.628Z,8744.00
2018-01-27T10:41:06.583Z,8360.00
2018-01-27T10:42:06.627Z,7200.00
2018-01-27T10:43:06.572Z,6476.00
2018-01-27T10:44:06.550Z,6296.00
2018-01-27T10:45:06.531Z,6620.00
2018-01-27T10:46:06.511Z,6380.00
2018-01-27T10:47:06.473Z,5640.00
2018-01-27T10:48:07.043Z,5452.00
2018-01-27T10:49:06.423Z,5884.00
2018-01-27T10:50:06.401Z,6912.00
2018-01-27T10:51:06.393Z,7636.00
2018-01-27T10:52:06.360Z,7244.00
2018-01-27T10:53:06.343Z,7156.00
2018-01-27T10:54:06.324Z,8536.00
2018-01-27T10:55:06.324Z,8960.00
2018-01-27T10:56:06.305Z,8524.00
2018-01-27T10:57:06.289Z,8532.00
2018-01-27T10:58:06.256Z,7832.00
2018-01-27T10:59:06.220Z,6884.00
2018-01-27T11:00:06.227Z,6412.00
2018-01-27T11:01:06.186Z,5708.00
2018-01-27T11:02:06.175Z,5636.00
2018-01-27T11:03:06.139Z,6912.00
2018-01-27T11:04:06.124Z,8848.00
2018-01-27T11:05:06.096Z,9796.00
2018-01-27T11:06:06.086Z,10884.00
2018-01-27T11:07:06.615Z,13164.00
2018-01-27T11:08:06.063Z,15824.00
2018-01-27T11:09:06.019Z,19520.00
2018-01-27T11:10:06.005Z,23808.00
2018-01-27T11:11:06.030Z,22304.00
2018-01-27T11:12:05.957Z,19200.00
2018-01-27T11:13:05.950Z,20320.00
2018-01-27T11:14:05.915Z,23264.00
2018-01-27T11:15:05.907Z,24160.00
2018-01-27T11:16:05.878Z,32544.00
2018-01-27T11:17:05.861Z,39968.00
2018-01-27T11:18:05.849Z,34592.00
2018-01-27T11:19:05.827Z,35808.00
2018-01-27T11:20:05.823Z,29184.00
2018-01-27T11:21:05.791Z,29312.00
2018-01-27T11:22:05.786Z,32224.00
2018-01-27T11:23:05.742Z,30624.00
2018-01-27T11:24:05.727Z,29792.00
2018-01-27T11:25:05.705Z,27392.00
2018-01-27T11:26:05.712Z,26720.00
2018-01-27T11:27:05.695Z,26560.00
2018-01-27T11:28:05.654Z,23488.00
2018-01-27T11:29:05.659Z,22272.00
2018-01-27T11:30:05.783Z,22592.00
2018-01-27T11:31:05.596Z,25152.00
2018-01-27T11:32:05.603Z,26880.00
2018-01-27T11:33:05.556Z,29952.00
2018-01-27T11:34:05.559Z,28800.00
2018-01-27T11:35:05.545Z,32160.00
2018-01-27T11:36:05.501Z,25984.00
2018-01-27T11:37:05.508Z,20160.00
2018-01-27T11:38:05.465Z,18240.00
2018-01-27T11:39:05.444Z,18656.00
2018-01-27T11:40:05.449Z,20416.00
2018-01-27T11:41:05.412Z,22272.00
2018-01-27T11:42:05.396Z,22464.00
2018-01-27T11:43:05.372Z,23136.00
2018-01-27T11:44:05.379Z,25120.00
2018-01-27T11:45:05.340Z,22848.00
2018-01-27T11:46:05.343Z,19872.00
2018-01-27T11:47:05.304Z,19168.00
2018-01-27T11:48:05.306Z,20768.00
2018-01-27T11:49:05.288Z,23680.00
2018-01-27T11:50:05.249Z,22720.00
2018-01-27T11:51:05.225Z,20064.00
2018-01-27T11:52:05.209Z,19808.00
2018-01-27T11:53:05.190Z,19072.00
2018-01-27T11:54:05.173Z,19040.00
2018-01-27T11:55:05.184Z,20160.00
2018-01-27T11:56:05.158Z,19008.00
2018-01-27T11:57:05.117Z,17760.00
2018-01-27T11:58:05.111Z,17248.00
2018-01-27T11:59:05.110Z,19168.00
2018-01-27T12:00:05.062Z,22528.00
2018-01-27T12:01:05.041Z,23936.00
2018-01-27T12:02:05.022Z,23296.00
2018-01-27T12:03:05.013Z,22400.00
2018-01-27T12:04:04.981Z,25216.00
2018-01-27T12:05:04.993Z,26720.00
2018-01-27T12:06:04.958Z,25152.00
2018-01-27T12:07:04.927Z,24480.00
2018-01-27T12:08:04.938Z,26656.00
2018-01-27T12:09:04.918Z,28896.00
2018-01-27T12:10:04.872Z,29920.00
2018-01-27T12:11:04.881Z,31136.00
2018-01-27T12:12:04.860Z,32800.00
2018-01-27T12:13:04.822Z,39008.00
2018-01-27T12:14:04.831Z,41344.00
2018-01-27T12:15:04.812Z,42144.00
2018-01-27T12:16:04.787Z,41440.00
2018-01-27T12:17:04.743Z,37088.00
2018-01-27T12:18:04.754Z,35232.00
2018-01-27T12:19:04.718Z,30016.00
2018-01-27T12:20:04.688Z,30272.00
2018-01-27T12:21:04.674Z,30624.00
2018-01-27T12:22:04.652Z,31072.00
2018-01-27T12:23:04.640Z,32032.00
2018-01-27T12:24:04.627Z,33536.00
2018-01-27T12:25:04.603Z,34688.00
2018-01-27T12:26:04.587Z,33280.00
2018-01-27T12:27:04.574Z,33312.00
2018-01-27T12:28:04.552Z,33280.00
2018-01-27T12:29:04.534Z,36096.00
2018-01-27T12:30:04.543Z,38944.00
2018-01-27T12:31:04.526Z,38048.00
2018-01-27T12:32:04.505Z,35456.00
2018-01-27T12:33:04.462Z,32032.00
2018-01-27T12:34:04.447Z,29632.00
2018-01-27T12:35:04.429Z,28096.00
2018-01-27T12:36:04.412Z,26368.00
2018-01-27T12:37:04.421Z,25536.00
2018-01-27T12:38:04.384Z,25696.00
2018-01-27T12:39:04.367Z,25920.00
2018-01-27T12:40:04.342Z,28544.00
2018-01-27T12:41:04.354Z,30528.00
2018-01-27T12:42:04.321Z,30144.00
2018-01-27T12:43:04.298Z,26592.00
2018-01-27T12:44:04.284Z,24512.00
2018-01-27T12:45:04.255Z,26432.00
2018-01-27T12:46:04.253Z,29408.00
2018-01-27T12:47:04.246Z,31552.00
2018-01-27T12:48:04.207Z,35936.00
2018-01-27T12:49:04.211Z,40928.00